Time;durP1;ratioP1;P1;durP2;ratioP2;P2;SDS_P1;SDS_P2;PMS_P1;PMS_P2;Temp;Humidity;BMP_temperature;BMP_pressure;BME280_temperature;BME280_humidity;BME280_pressure;Samples;Min_cycle;Max_cycle;Signal;HPM_P1;HPM_P2
2023/06/20 00:00:08;;;;;;;17.80;12.95;;;;;;;;;;6166623;23;20017;-82
2023/06/20 00:02:35;;;;;;;17.90;12.80;;;;;;;;;;6165658;23;20498;-82
2023/06/20 00:05:02;;;;;;;17.45;13.25;;;;;;;;;;6165792;23;20452;-82
2023/06/20 00:07:28;;;;;;;18.20;13.25;;;;;;;;;;6166509;23;20032;-82
2023/06/20 00:09:55;;;;;;;20.52;13.82;;;;;;;;;;6167732;23;20369;-82
2023/06/20 00:12:21;;;;;;;20.55;14.38;;;;;;;;;;6169423;23;20041;-82
2023/06/20 00:14:47;;;;;;;18.23;13.05;;;;;;;;;;6172100;23;20032;-82
2023/06/20 00:17:13;;;;;;;20.75;13.75;;;;;;;;;;6170970;23;20024;-82
2023/06/20 00:19:40;;;;;;;18.70;12.25;;;;;;;;;;6170680;23;20021;-82
2023/06/20 00:22:06;;;;;;;16.75;12.68;;;;;;;;;;6170867;23;20022;-83
2023/06/20 00:24:35;;;;;;;14.98;11.10;;;;;;;;;;6171712;23;20026;-82
2023/06/20 00:27:01;;;;;;;17.83;12.80;;;;;;;;;;6169276;23;20018;-82
2023/06/20 00:29:27;;;;;;;16.90;12.38;;;;;;;;;;6171914;23;20326;-82
2023/06/20 00:31:53;;;;;;;18.20;13.23;;;;;;;;;;6175976;23;20049;-82
2023/06/20 00:34:19;;;;;;;16.25;12.48;;;;;;;;;;6175358;23;20026;-82
2023/06/20 00:36:45;;;;;;;16.17;12.23;;;;;;;;;;6172116;23;20017;-83
2023/06/20 00:39:12;;;;;;;16.33;12.30;;;;;;;;;;6171371;23;20053;-82
2023/06/20 00:41:38;;;;;;;16.15;12.68;;;;;;;;;;6170178;23;20017;-82
2023/06/20 00:44:05;;;;;;;16.98;11.95;;;;;;;;;;6168819;23;20022;-82
2023/06/20 00:46:38;;;;;;;15.85;12.38;;;;;;;;;;6168469;23;20017;-82
2023/06/20 00:49:05;;;;;;;18.55;13.50;;;;;;;;;;6169831;23;20018;-82
2023/06/20 00:51:31;;;;;;;19.10;13.02;;;;;;;;;;6167939;23;20076;-82
2023/06/20 00:53:58;;;;;;;16.65;12.45;;;;;;;;;;6168953;23;20044;-82
2023/06/20 00:56:25;;;;;;;17.35;13.27;;;;;;;;;;6168866;23;20108;-82
2023/06/20 00:58:52;;;;;;;15.73;12.15;;;;;;;;;;6167301;23;20456;-82
2023/06/20 01:01:18;;;;;;;18.33;13.75;;;;;;;;;;6167046;23;20080;-82
2023/06/20 01:03:46;;;;;;;21.20;13.95;;;;;;;;;;6168209;23;20017;-82
2023/06/20 01:06:23;;;;;;;18.25;13.07;;;;;;;;;;6168425;23;20018;-82
2023/06/20 01:08:57;;;;;;;19.42;13.50;;;;;;;;;;6169467;23;20041;-82
2023/06/20 01:11:36;;;;;;;19.27;14.27;;;;;;;;;;6166750;23;20060;-82
2023/06/20 01:14:18;;;;;;;21.67;14.35;;;;;;;;;;6167356;23;20073;-82
2023/06/20 01:16:47;;;;;;;17.20;13.25;;;;;;;;;;6168927;23;20132;-82
2023/06/20 01:19:32;;;;;;;18.08;13.07;;;;;;;;;;6167990;23;20014;-82
2023/06/20 01:22:03;;;;;;;19.90;15.63;;;;;;;;;;6166459;23;20053;-82
2023/06/20 01:24:40;;;;;;;23.05;15.75;;;;;;;;;;6169076;23;20021;-82
2023/06/20 01:27:06;;;;;;;20.80;15.02;;;;;;;;;;6168504;23;20021;-82
2023/06/20 01:29:37;;;;;;;24.10;15.82;;;;;;;;;;6168136;23;20018;-82
2023/06/20 01:32:05;;;;;;;26.05;16.90;;;;;;;;;;6166257;23;20538;-82
2023/06/20 01:34:33;;;;;;;22.10;15.63;;;;;;;;;;6141883;23;20023;-82
2023/06/20 01:37:00;;;;;;;24.38;17.55;;;;;;;;;;6167711;23;20028;-82
2023/06/20 01:39:28;;;;;;;24.83;17.15;;;;;;;;;;6167867;23;20045;-82
2023/06/20 01:41:57;;;;;;;24.45;17.70;;;;;;;;;;6166140;23;20073;-82
2023/06/20 01:44:23;;;;;;;22.63;16.02;;;;;;;;;;6166232;23;20345;-82
2023/06/20 01:46:50;;;;;;;24.95;18.08;;;;;;;;;;6167092;23;20084;-82
2023/06/20 01:49:17;;;;;;;21.90;16.88;;;;;;;;;;6166985;23;20017;-82
2023/06/20 01:51:44;;;;;;;26.88;18.10;;;;;;;;;;6165592;23;20044;-82
2023/06/20 01:54:10;;;;;;;24.45;17.15;;;;;;;;;;6166864;23;20088;-82
2023/06/20 01:56:36;;;;;;;26.67;18.70;;;;;;;;;;6168808;23;20021;-82
2023/06/20 01:59:04;;;;;;;25.08;18.10;;;;;;;;;;6174562;23;20018;-82
2023/06/20 02:01:31;;;;;;;27.52;18.00;;;;;;;;;;6176430;23;20045;-82
2023/06/20 02:03:57;;;;;;;25.85;19.27;;;;;;;;;;6147488;23;20018;-82
2023/06/20 02:06:26;;;;;;;27.10;18.58;;;;;;;;;;6171570;23;20044;-82
2023/06/20 02:08:54;;;;;;;28.08;18.67;;;;;;;;;;6170067;23;20017;-82
2023/06/20 02:11:21;;;;;;;28.63;19.15;;;;;;;;;;6168765;23;20014;-82
2023/06/20 02:13:51;;;;;;;25.08;17.92;;;;;;;;;;6168867;23;20043;-83
2023/06/20 02:16:17;;;;;;;26.85;18.35;;;;;;;;;;6145254;23;20024;-82
2023/06/20 02:18:44;;;;;;;29.58;19.05;;;;;;;;;;6171613;23;20017;-82
2023/06/20 02:21:13;;;;;;;28.65;18.40;;;;;;;;;;6170510;23;20077;-82
2023/06/20 02:23:40;;;;;;;28.20;18.73;;;;;;;;;;6170053;23;20017;-82
2023/06/20 02:26:08;;;;;;;27.42;19.02;;;;;;;;;;6173051;23;20021;-82
2023/06/20 02:28:40;;;;;;;30.45;18.80;;;;;;;;;;6145979;23;20024;-82
2023/06/20 02:31:07;;;;;;;29.08;19.65;;;;;;;;;;6172934;23;20022;-81
2023/06/20 02:33:33;;;;;;;26.80;18.35;;;;;;;;;;6171974;23;20045;-82
2023/06/20 02:36:01;;;;;;;25.45;18.83;;;;;;;;;;6170816;23;20056;-82
2023/06/20 02:38:27;;;;;;;28.38;19.75;;;;;;;;;;6171964;23;20018;-82
2023/06/20 02:40:53;;;;;;;26.92;18.98;;;;;;;;;;6169944;23;20018;-81
2023/06/20 02:43:19;;;;;;;29.42;19.67;;;;;;;;;;6169459;23;20017;-81
2023/06/20 02:45:47;;;;;;;27.48;19.10;;;;;;;;;;6171374;23;20021;-81
2023/06/20 02:48:13;;;;;;;26.80;18.83;;;;;;;;;;6171210;23;20032;-81
2023/06/20 02:50:56;;;;;;;26.02;17.60;;;;;;;;;;6168598;23;20022;-81
2023/06/20 02:53:26;;;;;;;29.00;19.15;;;;;;;;;;6169319;23;20026;-81
2023/06/20 02:56:05;;;;;;;23.90;18.17;;;;;;;;;;6169998;23;20083;-82
2023/06/20 02:58:33;;;;;;;24.70;17.23;;;;;;;;;;6169674;23;20045;-81
2023/06/20 03:01:00;;;;;;;26.58;18.38;;;;;;;;;;6167971;23;20262;-81
2023/06/20 03:03:45;;;;;;;26.80;17.85;;;;;;;;;;6133068;23;20017;-81
2023/06/20 03:06:12;;;;;;;25.20;16.53;;;;;;;;;;6158255;23;20088;-81
2023/06/20 03:08:41;;;;;;;25.35;15.70;;;;;;;;;;6161269;23;20113;-81
2023/06/20 03:11:08;;;;;;;23.83;16.50;;;;;;;;;;6162101;23;20105;-81
2023/06/20 03:13:34;;;;;;;21.55;15.90;;;;;;;;;;6137199;23;20437;-81
2023/06/20 03:16:00;;;;;;;23.27;15.88;;;;;;;;;;6161782;23;20021;-81
2023/06/20 03:18:29;;;;;;;21.60;15.13;;;;;;;;;;6164040;23;20101;-81
2023/06/20 03:20:55;;;;;;;21.88;15.30;;;;;;;;;;6165864;23;20013;-81
2023/06/20 03:23:21;;;;;;;18.45;13.80;;;;;;;;;;6163110;23;20021;-81
2023/06/20 03:25:47;;;;;;;18.67;13.38;;;;;;;;;;6158166;23;20515;-84
2023/06/20 03:28:13;;;;;;;17.83;13.70;;;;;;;;;;6159993;23;20096;-82
2023/06/20 03:30:39;;;;;;;21.45;13.10;;;;;;;;;;6171243;23;20032;-82
2023/06/20 03:33:05;;;;;;;17.02;12.85;;;;;;;;;;6177597;23;20204;-82
2023/06/20 03:35:31;;;;;;;19.63;13.10;;;;;;;;;;6173119;23;20018;-82
2023/06/20 03:37:57;;;;;;;20.75;11.85;;;;;;;;;;6171997;23;20479;-82
2023/06/20 03:40:24;;;;;;;18.17;11.68;;;;;;;;;;6172648;23;20022;-82
2023/06/20 03:42:51;;;;;;;16.13;11.27;;;;;;;;;;6170751;23;20071;-82
2023/06/20 03:45:17;;;;;;;15.77;11.63;;;;;;;;;;6169847;23;20022;-82
2023/06/20 03:47:43;;;;;;;16.45;11.52;;;;;;;;;;6171253;23;20021;-82
2023/06/20 03:50:09;;;;;;;14.48;11.13;;;;;;;;;;6171156;23;20033;-82
2023/06/20 03:52:35;;;;;;;16.63;11.52;;;;;;;;;;6145187;23;20022;-82
2023/06/20 03:55:01;;;;;;;17.25;11.15;;;;;;;;;;6142505;23;20021;-82
2023/06/20 03:57:27;;;;;;;18.80;11.50;;;;;;;;;;6140917;23;20023;-82
2023/06/20 03:59:53;;;;;;;15.90;10.95;;;;;;;;;;6167050;23;20022;-82
2023/06/20 04:02:19;;;;;;;16.60;11.23;;;;;;;;;;6167437;23;20036;-82
2023/06/20 04:04:49;;;;;;;16.20;11.30;;;;;;;;;;6167740;23;20014;-82
2023/06/20 04:07:18;;;;;;;14.63;10.88;;;;;;;;;;6164792;23;20025;-82
2023/06/20 04:09:45;;;;;;;16.25;11.02;;;;;;;;;;6165701;23;20056;-82
2023/06/20 04:12:11;;;;;;;14.65;10.90;;;;;;;;;;6168086;23;20042;-82
2023/06/20 04:14:37;;;;;;;16.75;11.63;;;;;;;;;;6140945;23;20022;-82
2023/06/20 04:17:03;;;;;;;18.35;11.75;;;;;;;;;;6166163;23;20017;-82
2023/06/20 04:19:29;;;;;;;17.42;12.02;;;;;;;;;;6170092;23;20328;-82
2023/06/20 04:21:55;;;;;;;15.77;10.98;;;;;;;;;;6173193;23;20018;-82
2023/06/20 04:24:21;;;;;;;16.52;11.70;;;;;;;;;;6173339;23;20031;-82
2023/06/20 04:26:47;;;;;;;14.65;11.45;;;;;;;;;;6172872;23;20013;-82
2023/06/20 04:29:13;;;;;;;15.75;11.75;;;;;;;;;;6170458;23;20017;-82
2023/06/20 04:31:39;;;;;;;17.02;11.55;;;;;;;;;;6169604;23;20053;-82
2023/06/20 04:34:06;;;;;;;16.48;10.68;;;;;;;;;;6170232;23;20096;-83
2023/06/20 04:36:34;;;;;;;15.95;11.20;;;;;;;;;;6145094;23;20027;-83
2023/06/20 04:39:01;;;;;;;16.70;11.63;;;;;;;;;;6170983;23;20425;-85
2023/06/20 04:41:27;;;;;;;16.38;11.43;;;;;;;;;;6168135;23;20425;-82
2023/06/20 04:43:53;;;;;;;17.27;12.52;;;;;;;;;;6168323;23;20048;-82
2023/06/20 04:46:19;;;;;;;16.80;11.55;;;;;;;;;;6167525;23;20017;-83
2023/06/20 04:48:48;;;;;;;14.65;11.60;;;;;;;;;;6143854;23;20017;-82
2023/06/20 04:51:16;;;;;;;16.13;12.18;;;;;;;;;;6170006;23;20463;-83
2023/06/20 04:53:42;;;;;;;16.05;11.68;;;;;;;;;;6144074;23;20025;-82
2023/06/20 04:56:08;;;;;;;15.10;12.23;;;;;;;;;;6170253;23;20013;-83
2023/06/20 04:58:34;;;;;;;15.70;11.80;;;;;;;;;;6167971;23;20021;-82
2023/06/20 05:01:00;;;;;;;18.40;11.90;;;;;;;;;;6169475;23;20027;-83
2023/06/20 05:03:26;;;;;;;16.40;11.00;;;;;;;;;;6173604;23;20048;-82
2023/06/20 05:05:53;;;;;;;18.35;11.45;;;;;;;;;;6174812;23;20033;-82
2023/06/20 05:08:19;;;;;;;14.48;10.63;;;;;;;;;;6172790;23;20017;-83
2023/06/20 05:10:45;;;;;;;16.05;11.27;;;;;;;;;;6145853;23;20048;-83
2023/06/20 05:13:11;;;;;;;15.48;10.68;;;;;;;;;;6171592;23;20017;-82
2023/06/20 05:15:38;;;;;;;12.45;9.73;;;;;;;;;;6168869;23;20073;-83
2023/06/20 05:18:04;;;;;;;11.77;8.95;;;;;;;;;;6169751;23;20020;-83
2023/06/20 05:20:30;;;;;;;13.20;9.40;;;;;;;;;;6169725;23;20022;-83
2023/06/20 05:22:56;;;;;;;15.90;9.95;;;;;;;;;;6168368;23;20048;-82
2023/06/20 05:25:22;;;;;;;12.18;9.40;;;;;;;;;;6168902;23;20028;-83
2023/06/20 05:27:48;;;;;;;9.77;8.50;;;;;;;;;;6169965;23;20040;-83
2023/06/20 05:30:14;;;;;;;13.35;9.80;;;;;;;;;;6167805;23;20317;-83
2023/06/20 05:32:40;;;;;;;14.30;10.35;;;;;;;;;;6166113;23;20017;-83
2023/06/20 05:35:07;;;;;;;21.35;10.45;;;;;;;;;;6164491;23;20049;-82
2023/06/20 05:37:33;;;;;;;15.75;10.48;;;;;;;;;;6167316;23;20017;-82
2023/06/20 05:40:00;;;;;;;14.93;10.73;;;;;;;;;;6164479;23;20330;-82
2023/06/20 05:42:26;;;;;;;13.18;9.85;;;;;;;;;;6163338;23;20076;-83
2023/06/20 05:44:52;;;;;;;15.55;11.18;;;;;;;;;;6161443;23;20018;-83
2023/06/20 05:47:18;;;;;;;14.57;10.77;;;;;;;;;;6162535;23;20014;-82
2023/06/20 05:49:47;;;;;;;16.42;10.82;;;;;;;;;;6163942;23;20024;-82
2023/06/20 05:52:14;;;;;;;14.90;10.63;;;;;;;;;;6165055;23;20017;-82
2023/06/20 05:54:43;;;;;;;15.73;10.35;;;;;;;;;;6161624;23;20060;-82
2023/06/20 05:57:09;;;;;;;16.52;11.38;;;;;;;;;;6136717;23;20043;-82
2023/06/20 05:59:35;;;;;;;12.50;10.63;;;;;;;;;;6164054;23;20060;-82
2023/06/20 06:02:02;;;;;;;15.18;10.75;;;;;;;;;;6166888;23;20018;-82
2023/06/20 06:04:28;;;;;;;13.77;10.32;;;;;;;;;;6164344;23;20021;-83
2023/06/20 06:06:54;;;;;;;15.60;10.38;;;;;;;;;;6165897;23;20055;-82
2023/06/20 06:09:20;;;;;;;15.20;11.02;;;;;;;;;;6139051;23;20033;-82
2023/06/20 06:11:46;;;;;;;15.27;11.60;;;;;;;;;;6163368;23;20048;-82
2023/06/20 06:14:13;;;;;;;14.15;10.40;;;;;;;;;;6165339;23;20028;-82
2023/06/20 06:16:39;;;;;;;14.00;10.70;;;;;;;;;;6163024;23;20018;-82
2023/06/20 06:19:05;;;;;;;16.40;10.75;;;;;;;;;;6165850;23;20028;-83
2023/06/20 06:21:31;;;;;;;13.48;10.05;;;;;;;;;;6174853;23;20080;-83
2023/06/20 06:23:57;;;;;;;14.95;11.90;;;;;;;;;;6174405;23;20064;-83
2023/06/20 06:26:23;;;;;;;14.85;11.45;;;;;;;;;;6171132;23;20013;-83
2023/06/20 06:28:49;;;;;;;15.73;11.52;;;;;;;;;;6172374;23;20024;-82
2023/06/20 06:31:17;;;;;;;14.95;11.60;;;;;;;;;;6171288;23;20117;-83
2023/06/20 06:33:44;;;;;;;14.52;11.18;;;;;;;;;;6170638;23;20018;-82
2023/06/20 06:36:11;;;;;;;17.92;11.43;;;;;;;;;;6155520;23;20040;-82
2023/06/20 06:38:37;;;;;;;16.80;12.77;;;;;;;;;;6179812;23;20064;-83
2023/06/20 06:41:03;;;;;;;13.35;11.52;;;;;;;;;;6180286;23;20021;-82
2023/06/20 06:43:29;;;;;;;14.13;11.57;;;;;;;;;;6176730;23;20413;-83
2023/06/20 06:45:56;;;;;;;13.82;10.82;;;;;;;;;;6171545;23;20061;-83
2023/06/20 06:48:22;;;;;;;16.90;11.45;;;;;;;;;;6172702;23;20018;-83
2023/06/20 06:50:48;;;;;;;14.98;11.43;;;;;;;;;;6171186;23;20042;-82
2023/06/20 06:53:15;;;;;;;14.00;10.68;;;;;;;;;;6168771;23;20053;-83
2023/06/20 06:55:47;;;;;;;15.27;11.65;;;;;;;;;;6170250;23;20021;-83
2023/06/20 06:58:13;;;;;;;15.05;11.27;;;;;;;;;;6169150;23;20025;-83
2023/06/20 07:00:39;;;;;;;20.40;12.07;;;;;;;;;;6167387;23;20025;-83
2023/06/20 07:03:08;;;;;;;14.48;11.82;;;;;;;;;;6165731;23;20017;-83
2023/06/20 07:05:34;;;;;;;15.82;12.30;;;;;;;;;;6160378;23;20018;-82
2023/06/20 07:08:00;;;;;;;16.13;11.85;;;;;;;;;;6162644;23;20026;-84
2023/06/20 07:10:26;;;;;;;24.38;13.07;;;;;;;;;;6133422;23;20022;-85
2023/06/20 07:12:52;;;;;;;17.25;12.27;;;;;;;;;;6156005;23;20104;-85
2023/06/20 07:15:18;;;;;;;15.57;12.00;;;;;;;;;;6155566;23;20040;-85
2023/06/20 07:17:44;;;;;;;16.60;12.45;;;;;;;;;;6155901;23;20018;-86
2023/06/20 07:20:11;;;;;;;48.58;19.17;;;;;;;;;;6155658;23;20017;-86
2023/06/20 07:22:37;;;;;;;15.98;12.45;;;;;;;;;;6134434;23;20021;-82
2023/06/20 07:25:04;;;;;;;15.35;11.55;;;;;;;;;;6165145;23;20079;-83
2023/06/20 07:27:30;;;;;;;16.60;12.07;;;;;;;;;;6164114;23;20022;-83
2023/06/20 07:29:56;;;;;;;17.35;11.38;;;;;;;;;;6161951;23;20072;-85
2023/06/20 07:32:22;;;;;;;26.00;13.35;;;;;;;;;;6159198;23;20523;-85
2023/06/20 07:34:51;;;;;;;13.40;10.93;;;;;;;;;;6157145;23;20113;-83
2023/06/20 07:37:17;;;;;;;15.13;11.57;;;;;;;;;;6155996;23;20018;-85
2023/06/20 07:39:46;;;;;;;15.82;12.32;;;;;;;;;;6129722;23;20115;-84
2023/06/20 07:42:12;;;;;;;15.57;12.27;;;;;;;;;;6155255;23;20025;-84
2023/06/20 07:44:38;;;;;;;15.57;11.65;;;;;;;;;;6130587;23;20088;-84
2023/06/20 07:47:04;;;;;;;17.38;12.57;;;;;;;;;;6156682;23;20018;-83
2023/06/20 07:49:31;;;;;;;18.73;12.10;;;;;;;;;;6156397;23;20021;-82
2023/06/20 07:51:57;;;;;;;22.15;13.48;;;;;;;;;;6161337;23;20018;-83
2023/06/20 07:54:23;;;;;;;18.27;12.23;;;;;;;;;;6158301;23;20345;-83
2023/06/20 07:56:49;;;;;;;19.23;12.60;;;;;;;;;;6156055;23;20077;-83
2023/06/20 07:59:15;;;;;;;16.63;12.23;;;;;;;;;;6153738;23;20059;-83
2023/06/20 08:01:41;;;;;;;14.05;12.45;;;;;;;;;;6154837;23;20025;-83
2023/06/20 08:04:07;;;;;;;16.10;12.48;;;;;;;;;;6157117;23;20017;-83
2023/06/20 08:06:33;;;;;;;15.00;11.88;;;;;;;;;;6155295;23;20396;-83
2023/06/20 08:08:59;;;;;;;14.77;12.35;;;;;;;;;;6158299;23;20063;-83
2023/06/20 08:11:25;;;;;;;15.63;12.10;;;;;;;;;;6158948;23;20022;-83
2023/06/20 08:13:51;;;;;;;17.83;12.88;;;;;;;;;;6157646;23;20065;-83
2023/06/20 08:16:17;;;;;;;16.00;12.98;;;;;;;;;;6159778;23;20087;-83
2023/06/20 08:18:43;;;;;;;19.40;13.63;;;;;;;;;;6157252;23;20028;-84
2023/06/20 08:21:10;;;;;;;18.02;12.52;;;;;;;;;;6158468;23;20515;-84
2023/06/20 08:23:36;;;;;;;18.02;13.43;;;;;;;;;;6164179;23;20014;-84
2023/06/20 08:26:02;;;;;;;17.90;13.65;;;;;;;;;;6162478;23;20017;-84
2023/06/20 08:28:28;;;;;;;17.30;13.40;;;;;;;;;;6136913;23;20559;-84
2023/06/20 08:30:54;;;;;;;16.73;12.80;;;;;;;;;;6158445;23;20025;-84
2023/06/20 08:33:20;;;;;;;51.05;16.42;;;;;;;;;;6158850;23;20513;-85
2023/06/20 08:35:47;;;;;;;69.75;15.70;;;;;;;;;;6157170;23;20100;-85
2023/06/20 08:38:13;;;;;;;17.52;12.95;;;;;;;;;;6157134;23;20013;-84
2023/06/20 08:40:39;;;;;;;18.50;13.32;;;;;;;;;;6161311;23;20314;-83
2023/06/20 08:43:06;;;;;;;17.70;13.15;;;;;;;;;;6164473;23;20029;-83
2023/06/20 08:45:32;;;;;;;16.23;13.50;;;;;;;;;;6162312;23;20017;-84
2023/06/20 08:48:01;;;;;;;18.75;13.65;;;;;;;;;;6157691;23;20021;-86
2023/06/20 08:50:28;;;;;;;16.40;13.40;;;;;;;;;;6154836;23;20464;-85
2023/06/20 08:52:55;;;;;;;22.55;14.40;;;;;;;;;;6155051;23;20014;-85
2023/06/20 08:55:22;;;;;;;18.48;13.45;;;;;;;;;;6155885;23;20072;-82
2023/06/20 08:57:48;;;;;;;17.77;13.30;;;;;;;;;;6155447;23;20022;-81
2023/06/20 09:00:21;;;;;;;18.27;13.90;;;;;;;;;;6156934;23;20082;-83
2023/06/20 09:02:47;;;;;;;16.75;13.38;;;;;;;;;;6159699;23;20022;-83
2023/06/20 09:05:14;;;;;;;17.70;13.55;;;;;;;;;;6159063;23;20041;-84
2023/06/20 09:07:41;;;;;;;16.83;13.30;;;;;;;;;;6131554;23;20022;-84
2023/06/20 09:10:08;;;;;;;15.40;13.27;;;;;;;;;;6158918;23;20037;-83
2023/06/20 09:12:46;;;;;;;17.67;12.82;;;;;;;;;;6131942;23;20021;-84
2023/06/20 09:15:14;;;;;;;15.52;13.80;;;;;;;;;;6132063;23;20017;-83
2023/06/20 09:17:41;;;;;;;17.23;13.60;;;;;;;;;;6158887;23;20448;-83
2023/06/20 09:20:08;;;;;;;16.60;13.27;;;;;;;;;;6158089;23;20013;-83
2023/06/20 09:22:34;;;;;;;14.40;12.85;;;;;;;;;;6159790;23;20021;-83
2023/06/20 09:25:03;;;;;;;14.40;12.85;;;;;;;;;;6158000;23;20088;-83
2023/06/20 09:27:34;;;;;;;14.18;12.68;;;;;;;;;;6133909;23;20093;-83
2023/06/20 09:30:00;;;;;;;17.17;13.55;;;;;;;;;;6157127;23;20021;-83
2023/06/20 09:32:26;;;;;;;13.45;12.05;;;;;;;;;;6157724;23;20018;-83
2023/06/20 09:34:53;;;;;;;13.68;12.27;;;;;;;;;;6159060;23;20385;-85
2023/06/20 09:37:19;;;;;;;15.00;12.18;;;;;;;;;;6157815;23;20068;-83
2023/06/20 09:39:45;;;;;;;14.38;12.07;;;;;;;;;;6159941;23;20022;-83
2023/06/20 09:42:14;;;;;;;13.95;11.68;;;;;;;;;;6166790;23;20539;-82
2023/06/20 09:44:41;;;;;;;13.27;11.25;;;;;;;;;;6163696;23;20069;-82
2023/06/20 09:47:07;;;;;;;14.20;11.45;;;;;;;;;;6165729;23;20457;-82
2023/06/20 09:49:39;;;;;;;12.40;10.90;;;;;;;;;;6162228;23;20017;-82
2023/06/20 09:52:13;;;;;;;13.98;9.50;;;;;;;;;;6164082;23;20045;-83
2023/06/20 09:54:39;;;;;;;12.50;11.15;;;;;;;;;;6163383;23;20059;-82
2023/06/20 09:57:10;;;;;;;14.40;11.25;;;;;;;;;;6162268;23;20017;-83
2023/06/20 09:59:38;;;;;;;14.13;11.35;;;;;;;;;;6163033;23;20021;-82
2023/06/20 10:02:07;;;;;;;15.57;11.57;;;;;;;;;;6164148;23;20024;-83
2023/06/20 10:04:42;;;;;;;11.90;10.73;;;;;;;;;;6164340;23;20150;-82
2023/06/20 10:07:09;;;;;;;11.75;10.43;;;;;;;;;;6161627;23;20488;-82
2023/06/20 10:09:36;;;;;;;14.95;10.20;;;;;;;;;;6162207;23;20337;-82
2023/06/20 10:12:04;;;;;;;12.63;10.40;;;;;;;;;;6164457;23;20337;-81
2023/06/20 10:14:30;;;;;;;11.65;10.45;;;;;;;;;;6162773;23;20093;-83
2023/06/20 10:17:05;;;;;;;11.65;10.43;;;;;;;;;;6157769;23;20032;-84
2023/06/20 10:19:46;;;;;;;12.50;11.17;;;;;;;;;;6158057;23;20036;-81
2023/06/20 10:22:12;;;;;;;14.68;12.07;;;;;;;;;;6160251;23;20397;-81
2023/06/20 10:24:40;;;;;;;12.75;11.40;;;;;;;;;;6154701;23;20089;-83
2023/06/20 10:27:07;;;;;;;16.52;11.07;;;;;;;;;;6155543;23;20025;-84
2023/06/20 10:29:40;;;;;;;13.27;11.30;;;;;;;;;;6155160;23;20013;-84
2023/06/20 10:32:07;;;;;;;14.38;11.18;;;;;;;;;;6154658;23;20051;-84
2023/06/20 10:34:34;;;;;;;11.90;10.60;;;;;;;;;;6154245;23;20018;-84
2023/06/20 10:37:10;;;;;;;13.27;11.00;;;;;;;;;;6155031;23;20013;-83
2023/06/20 10:39:36;;;;;;;11.85;9.63;;;;;;;;;;6157352;23;20053;-83
2023/06/20 10:42:08;;;;;;;12.38;10.88;;;;;;;;;;6159645;23;20017;-84
2023/06/20 10:44:34;;;;;;;14.23;10.82;;;;;;;;;;6161491;23;20018;-82
2023/06/20 10:47:00;;;;;;;12.75;9.82;;;;;;;;;;6163385;23;20014;-83
2023/06/20 10:49:26;;;;;;;10.25;9.25;;;;;;;;;;6161576;23;20013;-83
2023/06/20 10:51:55;;;;;;;10.77;9.38;;;;;;;;;;6162874;23;20018;-83
2023/06/20 10:54:21;;;;;;;11.73;10.20;;;;;;;;;;6163195;23;20080;-83
2023/06/20 10:56:48;;;;;;;11.05;9.95;;;;;;;;;;6134098;23;20013;-84
2023/06/20 10:59:15;;;;;;;11.02;9.93;;;;;;;;;;6160448;23;20045;-84
2023/06/20 11:01:41;;;;;;;11.05;9.95;;;;;;;;;;6159612;23;20018;-84
2023/06/20 11:04:10;;;;;;;12.40;10.40;;;;;;;;;;6161569;23;20022;-81
2023/06/20 11:06:37;;;;;;;11.82;10.63;;;;;;;;;;6136474;23;20084;-83
2023/06/20 11:09:03;;;;;;;10.40;9.40;;;;;;;;;;6161025;23;20020;-81
2023/06/20 11:11:32;;;;;;;10.40;9.30;;;;;;;;;;6157958;23;20022;-81
2023/06/20 11:14:09;;;;;;;10.63;9.52;;;;;;;;;;6166058;23;20021;-80
2023/06/20 11:16:35;;;;;;;9.77;8.65;;;;;;;;;;6164640;23;20096;-80
2023/06/20 11:19:01;;;;;;;9.57;8.68;;;;;;;;;;6160362;23;20452;-83
2023/06/20 11:21:28;;;;;;;10.85;9.13;;;;;;;;;;6162921;23;20441;-83
2023/06/20 11:24:00;;;;;;;9.18;8.20;;;;;;;;;;6158692;23;20079;-81
2023/06/20 11:26:33;;;;;;;8.02;7.22;;;;;;;;;;6161731;23;20013;-81
2023/06/20 11:29:00;;;;;;;7.10;6.15;;;;;;;;;;6158908;23;20018;-82
2023/06/20 11:31:26;;;;;;;7.35;6.35;;;;;;;;;;6158981;23;20022;-81
2023/06/20 11:34:02;;;;;;;7.63;5.90;;;;;;;;;;6159975;23;20072;-80
2023/06/20 11:36:31;;;;;;;7.72;6.93;;;;;;;;;;6158473;23;20022;-82
2023/06/20 11:38:59;;;;;;;7.55;6.03;;;;;;;;;;6157729;23;20017;-82
2023/06/20 11:41:33;;;;;;;7.65;6.30;;;;;;;;;;6160222;23;20480;-81
2023/06/20 11:44:00;;;;;;;7.45;6.18;;;;;;;;;;6158040;23;20349;-81
2023/06/20 11:46:26;;;;;;;6.63;5.97;;;;;;;;;;6158133;23;20017;-82
2023/06/20 11:48:53;;;;;;;7.00;6.30;;;;;;;;;;6157823;23;20017;-81
2023/06/20 11:51:24;;;;;;;8.00;6.50;;;;;;;;;;6157202;23;20069;-83
2023/06/20 11:54:13;;;;;;;7.90;6.40;;;;;;;;;;6158076;23;20028;-87
2023/06/20 11:56:40;;;;;;;7.53;6.13;;;;;;;;;;6156474;23;20053;-82
2023/06/20 11:59:06;;;;;;;7.05;6.35;;;;;;;;;;6131861;23;20026;-84
2023/06/20 12:01:32;;;;;;;8.05;6.85;;;;;;;;;;6155813;23;20021;-83
2023/06/20 12:04:10;;;;;;;7.97;7.10;;;;;;;;;;6130807;23;20021;-84
2023/06/20 12:06:36;;;;;;;9.65;6.88;;;;;;;;;;6156812;23;20060;-84
2023/06/20 12:09:08;;;;;;;7.38;6.47;;;;;;;;;;6156284;23;20333;-84
2023/06/20 12:11:38;;;;;;;7.65;6.40;;;;;;;;;;6155274;23;20013;-86
2023/06/20 12:14:04;;;;;;;8.05;6.53;;;;;;;;;;6154746;23;20024;-85
2023/06/20 12:16:31;;;;;;;8.93;7.75;;;;;;;;;;6154774;23;20033;-86
2023/06/20 12:18:59;;;;;;;8.65;6.95;;;;;;;;;;6156265;23;20132;-87
2023/06/20 12:21:26;;;;;;;8.77;6.40;;;;;;;;;;6158192;23;20017;-86
2023/06/20 12:23:52;;;;;;;6.70;5.63;;;;;;;;;;6155132;23;20088;-87
2023/06/20 12:26:18;;;;;;;7.60;6.07;;;;;;;;;;6155519;23;20017;-86
2023/06/20 12:28:45;;;;;;;6.97;6.25;;;;;;;;;;6164220;23;20044;-85
2023/06/20 12:31:12;;;;;;;6.75;5.65;;;;;;;;;;6163070;23;20096;-86
2023/06/20 12:33:38;;;;;;;8.23;6.20;;;;;;;;;;6162110;23;20045;-86
2023/06/20 12:36:05;;;;;;;8.00;6.22;;;;;;;;;;6130476;23;20052;-85
2023/06/20 12:38:31;;;;;;;6.95;6.25;;;;;;;;;;6154778;23;20021;-85
2023/06/20 12:40:58;;;;;;;6.47;5.88;;;;;;;;;;6130062;23;20017;-85
2023/06/20 12:43:24;;;;;;;9.43;6.32;;;;;;;;;;6154819;23;20076;-86
2023/06/20 12:45:53;;;;;;;7.55;6.85;;;;;;;;;;6136413;23;20022;-87
2023/06/20 12:48:19;;;;;;;7.78;6.35;;;;;;;;;;6135650;23;20349;-88
2023/06/20 12:50:45;;;;;;;7.53;6.63;;;;;;;;;;6154858;23;20057;-87
2023/06/20 12:53:11;;;;;;;6.90;6.20;;;;;;;;;;6155016;23;20088;-85
2023/06/20 12:55:37;;;;;;;9.05;6.85;;;;;;;;;;6155919;23;20076;-87
2023/06/20 12:58:03;;;;;;;7.53;6.60;;;;;;;;;;6154390;23;20021;-86
2023/06/20 13:00:29;;;;;;;8.20;7.03;;;;;;;;;;6154433;23;20088;-85
2023/06/20 13:02:56;;;;;;;7.97;6.57;;;;;;;;;;6129652;23;20072;-85
2023/06/20 13:05:22;;;;;;;7.13;6.43;;;;;;;;;;6154440;23;20022;-86
2023/06/20 13:07:48;;;;;;;8.10;6.60;;;;;;;;;;6129906;23;20349;-86
2023/06/20 13:10:17;;;;;;;10.38;7.60;;;;;;;;;;6155582;23;20017;-86
2023/06/20 13:12:44;;;;;;;8.20;7.30;;;;;;;;;;6129796;23;20044;-84
2023/06/20 13:15:12;;;;;;;7.55;6.85;;;;;;;;;;6155807;23;20024;-85
2023/06/20 13:17:38;;;;;;;8.25;7.47;;;;;;;;;;6154429;23;20112;-85
2023/06/20 13:20:06;;;;;;;8.50;7.63;;;;;;;;;;6128813;23;20465;-85
2023/06/20 13:22:32;;;;;;;7.90;7.20;;;;;;;;;;6154617;23;20026;-82
2023/06/20 13:24:58;;;;;;;8.13;7.40;;;;;;;;;;6158471;23;20072;-83
2023/06/20 13:27:27;;;;;;;7.93;7.13;;;;;;;;;;6158524;23;20092;-81
2023/06/20 13:29:57;;;;;;;8.02;7.25;;;;;;;;;;6158028;23;20014;-82
2023/06/20 13:32:23;;;;;;;8.05;7.28;;;;;;;;;;6158212;23;20393;-82
2023/06/20 13:34:49;;;;;;;7.57;6.80;;;;;;;;;;6155607;23;20021;-82
2023/06/20 13:37:16;;;;;;;7.28;6.57;;;;;;;;;;6158041;23;20017;-81
2023/06/20 13:39:43;;;;;;;7.53;6.82;;;;;;;;;;6153505;23;20033;-82
2023/06/20 13:42:09;;;;;;;7.88;7.18;;;;;;;;;;6154887;23;20025;-81
2023/06/20 13:44:35;;;;;;;7.43;6.72;;;;;;;;;;6154640;23;20029;-81
2023/06/20 13:47:01;;;;;;;7.28;6.53;;;;;;;;;;6154459;23;20021;-82
2023/06/20 13:49:28;;;;;;;8.40;6.68;;;;;;;;;;6155760;23;20017;-81
2023/06/20 13:51:54;;;;;;;7.78;6.97;;;;;;;;;;6154480;23;20021;-81
2023/06/20 13:54:21;;;;;;;14.05;6.63;;;;;;;;;;6154838;23;20014;-81
2023/06/20 13:56:47;;;;;;;6.82;6.20;;;;;;;;;;6154702;23;20356;-81
2023/06/20 13:59:13;;;;;;;7.50;6.80;;;;;;;;;;6154468;23;20448;-81
2023/06/20 14:01:41;;;;;;;7.15;6.45;;;;;;;;;;6129684;23;20515;-82
2023/06/20 14:04:07;;;;;;;7.30;6.60;;;;;;;;;;6155956;23;20092;-82
2023/06/20 14:06:33;;;;;;;7.22;6.53;;;;;;;;;;6156874;23;20098;-81
2023/06/20 14:09:00;;;;;;;7.53;6.80;;;;;;;;;;6156358;23;20344;-82
2023/06/20 14:11:26;;;;;;;7.50;6.80;;;;;;;;;;6158994;23;20394;-82
2023/06/20 14:13:52;;;;;;;7.85;7.15;;;;;;;;;;6162492;23;20028;-82
2023/06/20 14:16:19;;;;;;;9.40;6.75;;;;;;;;;;6136270;23;20446;-81
2023/06/20 14:18:46;;;;;;;7.53;6.75;;;;;;;;;;6159225;23;20024;-82
2023/06/20 14:21:12;;;;;;;7.82;6.97;;;;;;;;;;6162210;23;20029;-81
2023/06/20 14:23:39;;;;;;;7.53;6.82;;;;;;;;;;6160496;23;20026;-81